Sluisgracht — PFBE — position and weather

sailwx.info

Track history (hours):
 
Tides and Currents Weather Stations Pressure Air Temp Water Temp Dewpoint Dewpoint Depression Visibility Wind Speed Wind Dir Waves Ship Positions

Sluisgracht

Last reported at 2019-Jul-22 00:30 UTC. Time now 2019-Jul-22 01:46 UTC.
Position N 58°22' E 018°45'.

Length 173 m; beam 26 m.

Type: Cargo ship. MMSI: 244903000.

Date/timePositionNaut miles runAvg speedWind from/ knotsBaromVisibWave heightAir tempDewpointWater temp
2019-Jul-22 00:30N 58°22' E 018°45'815.0
2019-Jul-22 00:00N 58°15' E 018°38'1715.2
2019-Jul-21 22:51N 58°00' E 018°22'715.0
2019-Jul-21 22:24N 57°54' E 018°16'1014.9
2019-Jul-21 21:45N 57°46' E 018°07'5715.1
2019-Jul-21 18:00N 56°54' E 017°24'2514.9 200 / 81014.110.8 21.019.518.5
2019-Jul-21 16:18N 56°30' E 017°08'415.2
2019-Jul-21 16:00N 56°26' E 017°05'815.1
2019-Jul-21 15:30N 56°19' E 016°60'815.0
2019-Jul-21 15:00N 56°12' E 016°55'814.9
2019-Jul-21 14:28N 56°05' E 016°49'714.6
2019-Jul-21 14:00N 56°01' E 016°39'815.0
2019-Jul-21 13:30N 55°57' E 016°28'714.9
2019-Jul-21 13:00N 55°53' E 016°16'714.8
2019-Jul-21 12:30N 55°50' E 016°05'714.7
2019-Jul-21 12:00N 55°46' E 015°53'714.5
2019-Jul-21 11:30N 55°43' E 015°42'714.5
2019-Jul-21 11:00N 55°39' E 015°31'714.6
2019-Jul-21 10:30N 55°36' E 015°19'714.5
2019-Jul-21 10:00N 55°32' E 015°08'714.3
2019-Jul-21 09:30N 55°29' E 014°57'914.8
2019-Jul-21 08:52N 55°24' E 014°42'614.7
2019-Jul-21 08:28N 55°20' E 014°35'714.6
2019-Jul-21 08:00N 55°15' E 014°27'714.8
2019-Jul-21 07:30N 55°09' E 014°19'714.7
2019-Jul-21 07:00N 55°04' E 014°11'714.0
2019-Jul-21 06:30N 54°60' E 014°01'714.7
2019-Jul-21 06:00N 54°57' E 013°49'815.1
2019-Jul-21 05:28N 54°55' E 013°35'714.8
2019-Jul-21 05:00N 54°53' E 013°24'914.6
2019-Jul-21 04:24N 54°50' E 013°10'1014.6
2019-Jul-21 03:43N 54°47' E 012°53'314.6
2019-Jul-21 03:30N 54°46' E 012°48'714.3
2019-Jul-21 03:00N 54°43' E 012°37'814.5
2019-Jul-21 02:29N 54°38' E 012°27'714.1
2019-Jul-21 02:00N 54°34' E 012°18'814.0
2019-Jul-21 01:28N 54°27' E 012°13'613.0
2019-Jul-21 01:01N 54°24' E 012°04'714.2
2019-Jul-21 00:30N 54°24' E 011°51'713.9
2019-Jul-21 00:00N 54°25' E 011°40'714.1
2019-Jul-20 23:30N 54°29' E 011°29'713.5
2019-Jul-20 23:00N 54°33' E 011°19'713.2
2019-Jul-20 22:31N 54°35' E 011°09'713.1
2019-Jul-20 22:00N 54°39' E 010°60'612.3
2019-Jul-20 21:30N 54°43' E 010°52'612.5
2019-Jul-20 21:00N 54°49' E 010°52'611.9
2019-Jul-20 20:30N 54°55' E 010°54'612.3
2019-Jul-20 20:00N 54°60' E 011°01'612.8
2019-Jul-20 19:31N 55°06' E 011°02'612.5
2019-Jul-20 19:00N 55°12' E 011°05'713.2
2019-Jul-20 18:31N 55°18' E 011°02'712.2
2019-Jul-20 17:58N 55°25' E 010°59'4711.7
2019-Jul-20 13:57N 56°11' E 011°16'613.5
2019-Jul-20 13:30N 56°16' E 011°21'814.1
2019-Jul-20 12:56N 56°23' E 011°28'614.0
2019-Jul-20 12:28N 56°29' E 011°34'613.9
2019-Jul-20 12:00N 56°34' E 011°39'714.4
2019-Jul-20 11:30N 56°41' E 011°46'713.7
2019-Jul-20 11:00N 56°47' E 011°50'612.6
2019-Jul-20 10:30N 56°53' E 011°46'612.9
2019-Jul-20 10:00N 56°59' E 011°43'714.3
2019-Jul-20 09:30N 57°06' E 011°38'714.2
2019-Jul-20 09:00N 57°13' E 011°34'714.3
2019-Jul-20 08:30N 57°19' E 011°30'714.0
2019-Jul-20 08:00N 57°26' E 011°25'713.9
2019-Jul-20 07:31N 57°31' E 011°16'714.8
2019-Jul-20 07:01N 57°36' E 011°06'714.6
2019-Jul-20 06:31N 57°41' E 010°56'714.5
2019-Jul-20 06:00N 57°46' E 010°46'815.1
2019-Jul-20 05:30N 57°47' E 010°32'815.8
2019-Jul-20 05:01N 57°47' E 010°17'815.7
2019-Jul-20 04:31N 57°46' E 010°03'815.7
2019-Jul-20 04:00N 57°45' E 009°48'815.3
2019-Jul-20 03:31N 57°42' E 009°34'815.1
2019-Jul-20 03:00N 57°40' E 009°21'815.2
2019-Jul-20 02:30N 57°36' E 009°09'815.4
2019-Jul-20 02:00N 57°31' E 008°58'815.4
2019-Jul-20 01:30N 57°26' E 008°47'815.4
2019-Jul-20 01:00N 57°21' E 008°36'815.5
2019-Jul-20 00:30N 57°16' E 008°25'715.2
2019-Jul-20 00:00N 57°10' E 008°16'815.4
2019-Jul-19 23:30N 57°04' E 008°09'815.1
2019-Jul-19 23:00N 56°57' E 008°03'714.9
2019-Jul-19 22:30N 56°50' E 007°56'715.0
2019-Jul-19 22:00N 56°44' E 007°49'815.2
2019-Jul-19 21:30N 56°37' E 007°43'715.2
2019-Jul-19 21:00N 56°30' E 007°37'815.4
2019-Jul-19 20:30N 56°24' E 007°30'815.3
2019-Jul-19 19:59N 56°17' E 007°23'1315.2
2019-Jul-19 19:09N 56°05' E 007°13'215.3
2019-Jul-19 19:00N 56°04' E 007°10'15315.3
2019-Jul-19 08:59N 53°50' E 005°01'915.8
2019-Jul-19 08:26N 53°42' E 004°54'1115.6
2019-Jul-19 07:45N 53°32' E 004°47'415.9
2019-Jul-19 07:29N 53°28' E 004°45'815.9
2019-Jul-19 07:00N 53°21' E 004°40'816.0
2019-Jul-19 06:30N 53°14' E 004°34'815.9
2019-Jul-19 06:01N 53°07' E 004°28'815.4
2019-Jul-19 05:31N 53°00' E 004°21'815.7
2019-Jul-19 05:01N 52°53' E 004°16'815.5
2019-Jul-19 04:31N 52°47' E 004°09'815.5
2019-Jul-19 04:01N 52°41' E 004°01'815.5
2019-Jul-19 03:30N 52°35' E 003°52'815.5
2019-Jul-19 03:01N 52°30' E 003°43'815.4
2019-Jul-19 02:31N 52°24' E 003°34'815.1
2019-Jul-19 02:01N 52°17' E 003°29'815.5
2019-Jul-19 01:31N 52°10' E 003°27'815.0
2019-Jul-19 01:00N 52°02' E 003°24'713.4
2019-Jul-19 00:30N 51°56' E 003°22'714.2
2019-Jul-19 00:00N 51°49' E 003°18'711.9
2019-Jul-18 23:25N 51°42' E 003°17'713.6
2019-Jul-18 22:56N 51°36' E 003°23'512.1
2019-Jul-18 22:30N 51°32' E 003°26'612.0
2019-Jul-18 22:01N 51°27' E 003°32'611.8
2019-Jul-18 21:31N 51°26' E 003°41'713.8
2019-Jul-18 21:00N 51°21' E 003°48'1 2.4
2019-Jul-18 20:30N 51°20' E 003°49'0 0.2
2019-Jul-18 20:00N 51°20' E 003°49'2 4.1
2019-Jul-18 19:30N 51°18' E 003°50'2 3.6
2019-Jul-18 19:00N 51°16' E 003°50'0 0.0
2019-Jul-18 18:30N 51°16' E 003°50'0 0.0
2019-Jul-18 18:00N 51°16' E 003°50'0 0.0
2019-Jul-18 17:30N 51°16' E 003°50'0 0.0
2019-Jul-18 17:00N 51°16' E 003°50'0 0.0
2019-Jul-18 16:30N 51°16' E 003°50'0 0.0
2019-Jul-18 16:00N 51°16' E 003°50'0 0.0
2019-Jul-18 15:30N 51°16' E 003°50'0 0.0
2019-Jul-18 15:00N 51°16' E 003°50'0 0.0
2019-Jul-18 14:30N 51°16' E 003°50'0 0.0
2019-Jul-18 14:00N 51°16' E 003°50'0 0.0
2019-Jul-18 13:30N 51°16' E 003°50'0 0.0
2019-Jul-18 13:00N 51°16' E 003°50'0 0.0
2019-Jul-18 12:30N 51°16' E 003°50'0 0.0
2019-Jul-18 12:00N 51°16' E 003°50'0 0.0
2019-Jul-18 11:30N 51°16' E 003°50'0 0.0
2019-Jul-18 11:00N 51°16' E 003°50'0 0.0
2019-Jul-18 10:30N 51°16' E 003°50'0 0.0
2019-Jul-18 10:00N 51°16' E 003°50'0 0.0
2019-Jul-18 09:30N 51°16' E 003°50'0 0.0
2019-Jul-18 09:00N 51°16' E 003°50'0 0.0
2019-Jul-18 08:30N 51°16' E 003°50'0 0.0
2019-Jul-18 08:00N 51°16' E 003°50'0 0.0
2019-Jul-18 07:30N 51°16' E 003°50'0 0.0
2019-Jul-18 07:00N 51°16' E 003°50'0 0.0
2019-Jul-18 06:30N 51°16' E 003°50'0 0.0
2019-Jul-18 06:00N 51°16' E 003°50'0 0.0
2019-Jul-18 05:30N 51°16' E 003°50'0 0.0
2019-Jul-18 05:00N 51°16' E 003°50'0 0.0
2019-Jul-18 04:30N 51°16' E 003°50'0 0.0
2019-Jul-18 04:00N 51°16' E 003°50'0 0.0
2019-Jul-18 03:30N 51°16' E 003°50'0 0.0
2019-Jul-18 03:00N 51°16' E 003°50'0 0.0
2019-Jul-18 02:30N 51°16' E 003°50'0 0.0
2019-Jul-18 02:00N 51°16' E 003°50'0 0.0
2019-Jul-18 01:30N 51°16' E 003°50'0 0.0
2019-Jul-18 01:00N 51°16' E 003°50'0 0.0
2019-Jul-18 00:30N 51°16' E 003°50'0 0.0
2019-Jul-18 00:00N 51°16' E 003°50'0 0.0
2019-Jul-17 23:30N 51°16' E 003°50'0 0.0
2019-Jul-17 23:00N 51°16' E 003°50'0 0.0
2019-Jul-17 22:30N 51°16' E 003°50'0 0.0
2019-Jul-17 22:00N 51°16' E 003°50'0 0.0
2019-Jul-17 21:30N 51°16' E 003°50'0 0.0
2019-Jul-17 21:00N 51°16' E 003°50'0 0.0
2019-Jul-17 20:30N 51°16' E 003°50'0 0.0
2019-Jul-17 20:00N 51°16' E 003°50'0 0.0
2019-Jul-17 19:30N 51°16' E 003°50'0 0.0
2019-Jul-17 19:00N 51°16' E 003°50'0 0.0
2019-Jul-17 18:30N 51°16' E 003°50'0 0.0
2019-Jul-17 18:00N 51°16' E 003°50'0 0.0
2019-Jul-17 17:29N 51°16' E 003°50'0 0.0
2019-Jul-17 16:59N 51°16' E 003°50'0 0.0
2019-Jul-17 16:29N 51°16' E 003°50'0 0.0
2019-Jul-17 15:59N 51°16' E 003°50'0 0.0
2019-Jul-17 15:29N 51°16' E 003°50'0 0.0
2019-Jul-17 14:59N 51°16' E 003°50'0 0.0
2019-Jul-17 14:29N 51°16' E 003°50'0 0.0
2019-Jul-17 13:59N 51°16' E 003°50'0 0.0
2019-Jul-17 13:29N 51°16' E 003°50'0 0.0
2019-Jul-17 12:59N 51°16' E 003°50'0 0.0
2019-Jul-17 12:29N 51°16' E 003°50'0 0.0
2019-Jul-17 11:59N 51°16' E 003°50'0 0.2
2019-Jul-17 11:30N 51°16' E 003°50'2 4.1
2019-Jul-17 11:00N 51°18' E 003°50'2 3.7
2019-Jul-17 10:30N 51°20' E 003°49'0 0.1
2019-Jul-17 10:00N 51°20' E 003°49'1 1.4
2019-Jul-17 09:31N 51°20' E 003°49'0 0.2
2019-Jul-17 09:00N 51°20' E 003°49'2 3.8
2019-Jul-17 08:31N 51°22' E 003°46'611.2
2019-Jul-17 08:00N 51°26' E 003°41'510.8
2019-Jul-17 07:30N 51°25' E 003°32'611.7
2019-Jul-17 07:00N 51°24' E 003°23'511.0
2019-Jul-17 06:30N 51°24' E 003°14'612.3
2019-Jul-17 06:00N 51°24' E 003°04'612.8
2019-Jul-17 05:30N 51°22' E 002°54'612.7
2019-Jul-17 05:00N 51°22' E 002°44'510.0
2019-Jul-17 04:30N 51°22' E 002°36'3 6.6
2019-Jul-17 04:00N 51°22' E 002°31'3 5.9
2019-Jul-17 03:30N 51°21' E 002°27'3 6.2
2019-Jul-17 03:00N 51°20' E 002°22'3 6.1
2019-Jul-17 02:30N 51°18' E 002°18'4 8.9
2019-Jul-17 02:00N 51°16' E 002°12'612.2
2019-Jul-17 01:30N 51°13' E 002°03'612.8
2019-Jul-17 01:00N 51°10' E 001°54'713.3
2019-Jul-17 00:30N 51°06' E 001°46'714.6
2019-Jul-17 00:00N 51°02' E 001°37'815.1
2019-Jul-16 23:30N 50°56' E 001°28'714.6
2019-Jul-16 23:00N 50°49' E 001°25'713.9
2019-Jul-16 22:30N 50°43' E 001°22'713.3
2019-Jul-16 22:00N 50°38' E 001°15'713.2
2019-Jul-16 21:30N 50°34' E 001°07'713.2
2019-Jul-16 21:00N 50°30' E 000°59'713.5
2019-Jul-16 20:30N 50°28' E 000°48'713.6
2019-Jul-16 20:00N 50°26' E 000°38'713.7
2019-Jul-16 19:30N 50°24' E 000°28'713.5
2019-Jul-16 19:00N 50°23' E 000°17'713.2
2019-Jul-16 18:31N 50°21' E 000°08'713.1
2019-Jul-16 18:01N 50°19' W 000°02'713.3
2019-Jul-16 17:31N 50°18' W 000°12'613.0
2019-Jul-16 17:00N 50°16' W 000°22'612.6
2019-Jul-16 16:30N 50°14' W 000°32'612.2
2019-Jul-16 16:00N 50°13' W 000°41'611.7
2019-Jul-16 15:30N 50°11' W 000°50'611.2
2019-Jul-16 15:00N 50°10' W 000°58'510.6
2019-Jul-16 14:29N 50°09' W 001°07'510.3
2019-Jul-16 14:00N 50°07' W 001°14'510.3
2019-Jul-16 13:30N 50°06' W 001°22'510.4
2019-Jul-16 13:00N 50°05' W 001°30'510.6
2019-Jul-16 12:31N 50°03' W 001°37'510.9
2019-Jul-16 12:00N 50°01' W 001°46'510.9
2019-Jul-16 11:30N 49°60' W 001°54'611.6
2019-Jul-16 11:00N 49°58' W 002°02'612.4
2019-Jul-16 10:30N 49°57' W 002°12'713.1
2019-Jul-16 10:01N 49°55' W 002°22'713.3
2019-Jul-16 09:30N 49°54' W 002°32'713.6
2019-Jul-16 09:00N 49°52' W 002°42'713.8
2019-Jul-16 08:28N 49°50' W 002°53'613.9
2019-Jul-16 08:00N 49°48' W 003°02'713.9
2019-Jul-16 07:30N 49°46' W 003°12'713.7
2019-Jul-16 07:00N 49°43' W 003°22'713.8
2019-Jul-16 06:30N 49°41' W 003°33'713.3
2019-Jul-16 06:00N 49°39' W 003°43'713.3
2019-Jul-16 05:30N 49°38' W 003°52'713.3
2019-Jul-16 05:00N 49°36' W 004°02'713.3
2019-Jul-16 04:30N 49°34' W 004°12'713.5
2019-Jul-16 04:00N 49°32' W 004°22'1113.4
2019-Jul-16 03:13N 49°30' W 004°38'313.0
2019-Jul-16 03:00N 49°29' W 004°42'1112.8
2019-Jul-16 02:08N 49°27' W 004°59'212.7
2019-Jul-16 01:57N 49°27' W 005°02'612.3
2019-Jul-16 01:27N 49°25' W 005°12'712.3
2019-Jul-16 00:55N 49°23' W 005°21'512.1
2019-Jul-16 00:30N 49°22' W 005°29'611.9
2019-Jul-16 00:00N 49°21' W 005°38'3216.6
2019-Jul-16 00:00N 49°18' W 005°36'713.8 100 / 91021.210.8 17.013.018.5
2019-Jul-15 23:30N 49°19' W 005°46'611.6
2019-Jul-15 23:00N 49°18' W 005°55'611.3
2019-Jul-15 22:30N 49°16' W 006°03'1011.1
2019-Jul-15 21:39N 49°14' W 006°17'311.1
2019-Jul-15 21:25N 49°14' W 006°21'511.0
2019-Jul-15 21:00N 49°13' W 006°28'610.9
2019-Jul-15 20:29N 49°12' W 006°37'811.2
2019-Jul-15 19:45N 49°10' W 006°49'24812.5
2019-Jul-15 00:00N 48°00' W 012°48'7312.1 130 / 41021.3 5.4 18.013.618.5
2019-Jul-14 18:00N 47°36' W 014°30'7312.2 120 / 71021.610.8 19.614.519.0
2019-Jul-14 12:00N 47°12' W 016°12'7412.3 150 / 81022.3 5.4 20.213.918.5
2019-Jul-14 06:00N 46°48' W 017°54'14912.4 150 / 101021.3 5.4 19.014.218.5
2019-Jul-13 18:00N 45°48' W 021°12'7412.3 130 / 141021.9 5.4 20.817.819.0
2019-Jul-13 12:00N 45°18' W 022°48'15112.6 160 / 61022.210.8 18.018.019.0
2019-Jul-13 00:00N 44°12' W 026°00'7813.0 170 / 111023.010.8 20.020.021.0
2019-Jul-12 18:00N 43°36' W 027°36'7512.5 190 / 121022.510.8 23.620.421.0
2019-Jul-12 12:00N 43°00' W 029°06'   210 / 161022.710.8 22.020.321.0
Track history (hours):
 
Tides and Currents Weather Stations Pressure Air Temp Water Temp Dewpoint Dewpoint Depression Visibility Wind Speed Wind Dir Waves Ship Positions

Sluisgracht

Last reported at 2019-Jul-22 00:30 UTC. Time now 2019-Jul-22 01:46 UTC.
Position N 58°22' E 018°45'.

Length 173 m; beam 26 m.

Type: Cargo ship. MMSI: 244903000.

Date/timePositionNaut miles runAvg speedWind from/ knotsBaromVisibWave heightAir tempDewpointWater temp
2019-Jul-22 00:30N 58°22' E 018°45'815.0
2019-Jul-22 00:00N 58°15' E 018°38'1715.2
2019-Jul-21 22:51N 58°00' E 018°22'715.0
2019-Jul-21 22:24N 57°54' E 018°16'1014.9
2019-Jul-21 21:45N 57°46' E 018°07'5715.1
2019-Jul-21 18:00N 56°54' E 017°24'2514.9 200 / 81014.110.8 21.019.518.5
2019-Jul-21 16:18N 56°30' E 017°08'415.2
2019-Jul-21 16:00N 56°26' E 017°05'815.1
2019-Jul-21 15:30N 56°19' E 016°60'815.0
2019-Jul-21 15:00N 56°12' E 016°55'814.9
2019-Jul-21 14:28N 56°05' E 016°49'714.6
2019-Jul-21 14:00N 56°01' E 016°39'815.0
2019-Jul-21 13:30N 55°57' E 016°28'714.9
2019-Jul-21 13:00N 55°53' E 016°16'714.8
2019-Jul-21 12:30N 55°50' E 016°05'714.7
2019-Jul-21 12:00N 55°46' E 015°53'714.5
2019-Jul-21 11:30N 55°43' E 015°42'714.5
2019-Jul-21 11:00N 55°39' E 015°31'714.6
2019-Jul-21 10:30N 55°36' E 015°19'714.5
2019-Jul-21 10:00N 55°32' E 015°08'714.3
2019-Jul-21 09:30N 55°29' E 014°57'914.8
2019-Jul-21 08:52N 55°24' E 014°42'614.7
2019-Jul-21 08:28N 55°20' E 014°35'714.6
2019-Jul-21 08:00N 55°15' E 014°27'714.8
2019-Jul-21 07:30N 55°09' E 014°19'714.7
2019-Jul-21 07:00N 55°04' E 014°11'714.0
2019-Jul-21 06:30N 54°60' E 014°01'714.7
2019-Jul-21 06:00N 54°57' E 013°49'815.1
2019-Jul-21 05:28N 54°55' E 013°35'714.8
2019-Jul-21 05:00N 54°53' E 013°24'914.6
2019-Jul-21 04:24N 54°50' E 013°10'1014.6
2019-Jul-21 03:43N 54°47' E 012°53'314.6
2019-Jul-21 03:30N 54°46' E 012°48'714.3
2019-Jul-21 03:00N 54°43' E 012°37'814.5
2019-Jul-21 02:29N 54°38' E 012°27'714.1
2019-Jul-21 02:00N 54°34' E 012°18'814.0
2019-Jul-21 01:28N 54°27' E 012°13'613.0
2019-Jul-21 01:01N 54°24' E 012°04'714.2
2019-Jul-21 00:30N 54°24' E 011°51'713.9
2019-Jul-21 00:00N 54°25' E 011°40'714.1
2019-Jul-20 23:30N 54°29' E 011°29'713.5
2019-Jul-20 23:00N 54°33' E 011°19'713.2
2019-Jul-20 22:31N 54°35' E 011°09'713.1
2019-Jul-20 22:00N 54°39' E 010°60'612.3
2019-Jul-20 21:30N 54°43' E 010°52'612.5
2019-Jul-20 21:00N 54°49' E 010°52'611.9
2019-Jul-20 20:30N 54°55' E 010°54'612.3
2019-Jul-20 20:00N 54°60' E 011°01'612.8
2019-Jul-20 19:31N 55°06' E 011°02'612.5
2019-Jul-20 19:00N 55°12' E 011°05'713.2
2019-Jul-20 18:31N 55°18' E 011°02'712.2
2019-Jul-20 17:58N 55°25' E 010°59'4711.7
2019-Jul-20 13:57N 56°11' E 011°16'613.5
2019-Jul-20 13:30N 56°16' E 011°21'814.1
2019-Jul-20 12:56N 56°23' E 011°28'614.0
2019-Jul-20 12:28N 56°29' E 011°34'613.9
2019-Jul-20 12:00N 56°34' E 011°39'714.4
2019-Jul-20 11:30N 56°41' E 011°46'713.7
2019-Jul-20 11:00N 56°47' E 011°50'612.6
2019-Jul-20 10:30N 56°53' E 011°46'612.9
2019-Jul-20 10:00N 56°59' E 011°43'714.3
2019-Jul-20 09:30N 57°06' E 011°38'714.2
2019-Jul-20 09:00N 57°13' E 011°34'714.3
2019-Jul-20 08:30N 57°19' E 011°30'714.0
2019-Jul-20 08:00N 57°26' E 011°25'713.9
2019-Jul-20 07:31N 57°31' E 011°16'714.8
2019-Jul-20 07:01N 57°36' E 011°06'714.6
2019-Jul-20 06:31N 57°41' E 010°56'714.5
2019-Jul-20 06:00N 57°46' E 010°46'815.1
2019-Jul-20 05:30N 57°47' E 010°32'815.8
2019-Jul-20 05:01N 57°47' E 010°17'815.7
2019-Jul-20 04:31N 57°46' E 010°03'815.7
2019-Jul-20 04:00N 57°45' E 009°48'815.3
2019-Jul-20 03:31N 57°42' E 009°34'815.1
2019-Jul-20 03:00N 57°40' E 009°21'815.2
2019-Jul-20 02:30N 57°36' E 009°09'815.4
2019-Jul-20 02:00N 57°31' E 008°58'815.4
2019-Jul-20 01:30N 57°26' E 008°47'815.4
2019-Jul-20 01:00N 57°21' E 008°36'815.5
2019-Jul-20 00:30N 57°16' E 008°25'715.2
2019-Jul-20 00:00N 57°10' E 008°16'815.4
2019-Jul-19 23:30N 57°04' E 008°09'815.1
2019-Jul-19 23:00N 56°57' E 008°03'714.9
2019-Jul-19 22:30N 56°50' E 007°56'715.0
2019-Jul-19 22:00N 56°44' E 007°49'815.2
2019-Jul-19 21:30N 56°37' E 007°43'715.2
2019-Jul-19 21:00N 56°30' E 007°37'815.4
2019-Jul-19 20:30N 56°24' E 007°30'815.3
2019-Jul-19 19:59N 56°17' E 007°23'1315.2
2019-Jul-19 19:09N 56°05' E 007°13'215.3
2019-Jul-19 19:00N 56°04' E 007°10'15315.3
2019-Jul-19 08:59N 53°50' E 005°01'915.8
2019-Jul-19 08:26N 53°42' E 004°54'1115.6
2019-Jul-19 07:45N 53°32' E 004°47'415.9
2019-Jul-19 07:29N 53°28' E 004°45'815.9
2019-Jul-19 07:00N 53°21' E 004°40'816.0
2019-Jul-19 06:30N 53°14' E 004°34'815.9
2019-Jul-19 06:01N 53°07' E 004°28'815.4
2019-Jul-19 05:31N 53°00' E 004°21'815.7
2019-Jul-19 05:01N 52°53' E 004°16'815.5
2019-Jul-19 04:31N 52°47' E 004°09'815.5
2019-Jul-19 04:01N 52°41' E 004°01'815.5
2019-Jul-19 03:30N 52°35' E 003°52'815.5
2019-Jul-19 03:01N 52°30' E 003°43'815.4
2019-Jul-19 02:31N 52°24' E 003°34'815.1
2019-Jul-19 02:01N 52°17' E 003°29'815.5
2019-Jul-19 01:31N 52°10' E 003°27'815.0
2019-Jul-19 01:00N 52°02' E 003°24'713.4
2019-Jul-19 00:30N 51°56' E 003°22'714.2
2019-Jul-19 00:00N 51°49' E 003°18'711.9
2019-Jul-18 23:25N 51°42' E 003°17'713.6
2019-Jul-18 22:56N 51°36' E 003°23'512.1
2019-Jul-18 22:30N 51°32' E 003°26'612.0
2019-Jul-18 22:01N 51°27' E 003°32'611.8
2019-Jul-18 21:31N 51°26' E 003°41'713.8
2019-Jul-18 21:00N 51°21' E 003°48'1 2.4
2019-Jul-18 20:30N 51°20' E 003°49'0 0.2
2019-Jul-18 20:00N 51°20' E 003°49'2 4.1
2019-Jul-18 19:30N 51°18' E 003°50'2 3.6
2019-Jul-18 19:00N 51°16' E 003°50'0 0.0
2019-Jul-18 18:30N 51°16' E 003°50'0 0.0
2019-Jul-18 18:00N 51°16' E 003°50'0 0.0
2019-Jul-18 17:30N 51°16' E 003°50'0 0.0
2019-Jul-18 17:00N 51°16' E 003°50'0 0.0
2019-Jul-18 16:30N 51°16' E 003°50'0 0.0
2019-Jul-18 16:00N 51°16' E 003°50'0 0.0
2019-Jul-18 15:30N 51°16' E 003°50'0 0.0
2019-Jul-18 15:00N 51°16' E 003°50'0 0.0
2019-Jul-18 14:30N 51°16' E 003°50'0 0.0
2019-Jul-18 14:00N 51°16' E 003°50'0 0.0
2019-Jul-18 13:30N 51°16' E 003°50'0 0.0
2019-Jul-18 13:00N 51°16' E 003°50'0 0.0
2019-Jul-18 12:30N 51°16' E 003°50'0 0.0
2019-Jul-18 12:00N 51°16' E 003°50'0 0.0
2019-Jul-18 11:30N 51°16' E 003°50'0 0.0
2019-Jul-18 11:00N 51°16' E 003°50'0 0.0
2019-Jul-18 10:30N 51°16' E 003°50'0 0.0
2019-Jul-18 10:00N 51°16' E 003°50'0 0.0
2019-Jul-18 09:30N 51°16' E 003°50'0 0.0
2019-Jul-18 09:00N 51°16' E 003°50'0 0.0
2019-Jul-18 08:30N 51°16' E 003°50'0 0.0
2019-Jul-18 08:00N 51°16' E 003°50'0 0.0
2019-Jul-18 07:30N 51°16' E 003°50'0 0.0
2019-Jul-18 07:00N 51°16' E 003°50'0 0.0
2019-Jul-18 06:30N 51°16' E 003°50'0 0.0
2019-Jul-18 06:00N 51°16' E 003°50'0 0.0
2019-Jul-18 05:30N 51°16' E 003°50'0 0.0
2019-Jul-18 05:00N 51°16' E 003°50'0 0.0
2019-Jul-18 04:30N 51°16' E 003°50'0 0.0
2019-Jul-18 04:00N 51°16' E 003°50'0 0.0
2019-Jul-18 03:30N 51°16' E 003°50'0 0.0
2019-Jul-18 03:00N 51°16' E 003°50'0 0.0
2019-Jul-18 02:30N 51°16' E 003°50'0 0.0
2019-Jul-18 02:00N 51°16' E 003°50'0 0.0
2019-Jul-18 01:30N 51°16' E 003°50'0 0.0
2019-Jul-18 01:00N 51°16' E 003°50'0 0.0
2019-Jul-18 00:30N 51°16' E 003°50'0 0.0
2019-Jul-18 00:00N 51°16' E 003°50'0 0.0
2019-Jul-17 23:30N 51°16' E 003°50'0 0.0
2019-Jul-17 23:00N 51°16' E 003°50'0 0.0
2019-Jul-17 22:30N 51°16' E 003°50'0 0.0
2019-Jul-17 22:00N 51°16' E 003°50'0 0.0
2019-Jul-17 21:30N 51°16' E 003°50'0 0.0
2019-Jul-17 21:00N 51°16' E 003°50'0 0.0
2019-Jul-17 20:30N 51°16' E 003°50'0 0.0
2019-Jul-17 20:00N 51°16' E 003°50'0 0.0
2019-Jul-17 19:30N 51°16' E 003°50'0 0.0
2019-Jul-17 19:00N 51°16' E 003°50'0 0.0
2019-Jul-17 18:30N 51°16' E 003°50'0 0.0
2019-Jul-17 18:00N 51°16' E 003°50'0 0.0
2019-Jul-17 17:29N 51°16' E 003°50'0 0.0
2019-Jul-17 16:59N 51°16' E 003°50'0 0.0
2019-Jul-17 16:29N 51°16' E 003°50'0 0.0
2019-Jul-17 15:59N 51°16' E 003°50'0 0.0
2019-Jul-17 15:29N 51°16' E 003°50'0 0.0
2019-Jul-17 14:59N 51°16' E 003°50'0 0.0
2019-Jul-17 14:29N 51°16' E 003°50'0 0.0
2019-Jul-17 13:59N 51°16' E 003°50'0 0.0
2019-Jul-17 13:29N 51°16' E 003°50'0 0.0
2019-Jul-17 12:59N 51°16' E 003°50'0 0.0
2019-Jul-17 12:29N 51°16' E 003°50'0 0.0
2019-Jul-17 11:59N 51°16' E 003°50'0 0.2
2019-Jul-17 11:30N 51°16' E 003°50'2 4.1
2019-Jul-17 11:00N 51°18' E 003°50'2 3.7
2019-Jul-17 10:30N 51°20' E 003°49'0 0.1
2019-Jul-17 10:00N 51°20' E 003°49'1 1.4
2019-Jul-17 09:31N 51°20' E 003°49'0 0.2
2019-Jul-17 09:00N 51°20' E 003°49'2 3.8
2019-Jul-17 08:31N 51°22' E 003°46'611.2
2019-Jul-17 08:00N 51°26' E 003°41'510.8
2019-Jul-17 07:30N 51°25' E 003°32'611.7
2019-Jul-17 07:00N 51°24' E 003°23'511.0
2019-Jul-17 06:30N 51°24' E 003°14'612.3
2019-Jul-17 06:00N 51°24' E 003°04'612.8
2019-Jul-17 05:30N 51°22' E 002°54'612.7
2019-Jul-17 05:00N 51°22' E 002°44'510.0
2019-Jul-17 04:30N 51°22' E 002°36'3 6.6
2019-Jul-17 04:00N 51°22' E 002°31'3 5.9
2019-Jul-17 03:30N 51°21' E 002°27'3 6.2
2019-Jul-17 03:00N 51°20' E 002°22'3 6.1
2019-Jul-17 02:30N 51°18' E 002°18'4 8.9
2019-Jul-17 02:00N 51°16' E 002°12'612.2
2019-Jul-17 01:30N 51°13' E 002°03'612.8
2019-Jul-17 01:00N 51°10' E 001°54'713.3
2019-Jul-17 00:30N 51°06' E 001°46'714.6
2019-Jul-17 00:00N 51°02' E 001°37'815.1
2019-Jul-16 23:30N 50°56' E 001°28'714.6
2019-Jul-16 23:00N 50°49' E 001°25'713.9
2019-Jul-16 22:30N 50°43' E 001°22'713.3
2019-Jul-16 22:00N 50°38' E 001°15'713.2
2019-Jul-16 21:30N 50°34' E 001°07'713.2
2019-Jul-16 21:00N 50°30' E 000°59'713.5
2019-Jul-16 20:30N 50°28' E 000°48'713.6
2019-Jul-16 20:00N 50°26' E 000°38'713.7
2019-Jul-16 19:30N 50°24' E 000°28'713.5
2019-Jul-16 19:00N 50°23' E 000°17'713.2
2019-Jul-16 18:31N 50°21' E 000°08'713.1
2019-Jul-16 18:01N 50°19' W 000°02'713.3
2019-Jul-16 17:31N 50°18' W 000°12'613.0
2019-Jul-16 17:00N 50°16' W 000°22'612.6
2019-Jul-16 16:30N 50°14' W 000°32'612.2
2019-Jul-16 16:00N 50°13' W 000°41'611.7
2019-Jul-16 15:30N 50°11' W 000°50'611.2
2019-Jul-16 15:00N 50°10' W 000°58'510.6
2019-Jul-16 14:29N 50°09' W 001°07'510.3
2019-Jul-16 14:00N 50°07' W 001°14'510.3
2019-Jul-16 13:30N 50°06' W 001°22'510.4
2019-Jul-16 13:00N 50°05' W 001°30'510.6
2019-Jul-16 12:31N 50°03' W 001°37'510.9
2019-Jul-16 12:00N 50°01' W 001°46'510.9
2019-Jul-16 11:30N 49°60' W 001°54'611.6
2019-Jul-16 11:00N 49°58' W 002°02'612.4
2019-Jul-16 10:30N 49°57' W 002°12'713.1
2019-Jul-16 10:01N 49°55' W 002°22'713.3
2019-Jul-16 09:30N 49°54' W 002°32'713.6
2019-Jul-16 09:00N 49°52' W 002°42'713.8
2019-Jul-16 08:28N 49°50' W 002°53'613.9
2019-Jul-16 08:00N 49°48' W 003°02'713.9
2019-Jul-16 07:30N 49°46' W 003°12'713.7
2019-Jul-16 07:00N 49°43' W 003°22'713.8
2019-Jul-16 06:30N 49°41' W 003°33'713.3
2019-Jul-16 06:00N 49°39' W 003°43'713.3
2019-Jul-16 05:30N 49°38' W 003°52'713.3
2019-Jul-16 05:00N 49°36' W 004°02'713.3
2019-Jul-16 04:30N 49°34' W 004°12'713.5
2019-Jul-16 04:00N 49°32' W 004°22'1113.4
2019-Jul-16 03:13N 49°30' W 004°38'313.0
2019-Jul-16 03:00N 49°29' W 004°42'1112.8
2019-Jul-16 02:08N 49°27' W 004°59'212.7
2019-Jul-16 01:57N 49°27' W 005°02'612.3
2019-Jul-16 01:27N 49°25' W 005°12'712.3
2019-Jul-16 00:55N 49°23' W 005°21'512.1
2019-Jul-16 00:30N 49°22' W 005°29'611.9
2019-Jul-16 00:00N 49°21' W 005°38'3216.6
2019-Jul-16 00:00N 49°18' W 005°36'713.8 100 / 91021.210.8 17.013.018.5
2019-Jul-15 23:30N 49°19' W 005°46'611.6
2019-Jul-15 23:00N 49°18' W 005°55'611.3
2019-Jul-15 22:30N 49°16' W 006°03'1011.1
2019-Jul-15 21:39N 49°14' W 006°17'311.1
2019-Jul-15 21:25N 49°14' W 006°21'511.0
2019-Jul-15 21:00N 49°13' W 006°28'610.9
2019-Jul-15 20:29N 49°12' W 006°37'811.2
2019-Jul-15 19:45N 49°10' W 006°49'24812.5
2019-Jul-15 00:00N 48°00' W 012°48'7312.1 130 / 41021.3 5.4 18.013.618.5
2019-Jul-14 18:00N 47°36' W 014°30'7312.2 120 / 71021.610.8 19.614.519.0
2019-Jul-14 12:00N 47°12' W 016°12'7412.3 150 / 81022.3 5.4 20.213.918.5
2019-Jul-14 06:00N 46°48' W 017°54'14912.4 150 / 101021.3 5.4 19.014.218.5
2019-Jul-13 18:00N 45°48' W 021°12'7412.3 130 / 141021.9 5.4 20.817.819.0
2019-Jul-13 12:00N 45°18' W 022°48'15112.6 160 / 61022.210.8 18.018.019.0
2019-Jul-13 00:00N 44°12' W 026°00'7813.0 170 / 111023.010.8 20.020.021.0
2019-Jul-12 18:00N 43°36' W 027°36'7512.5 190 / 121022.510.8 23.620.421.0
2019-Jul-12 12:00N 43°00' W 029°06'   210 / 161022.710.8 22.020.321.0

Dump ship's entire track history